createdAt,value
2023-04-04T00:01:13.015Z,101291.03
2023-04-04T00:03:41.651Z,101292.44
2023-04-04T00:06:10.618Z,101290.66
2023-04-04T00:08:39.380Z,101277.88
2023-04-04T00:11:08.020Z,101287.50
2023-04-04T00:13:36.892Z,101278.94
2023-04-04T00:16:05.643Z,101277.25
2023-04-04T00:18:36.661Z,101266.09
2023-04-04T00:21:07.560Z,101274.13
2023-04-04T00:23:36.538Z,101265.47
2023-04-04T00:26:05.335Z,101267.84
2023-04-04T00:28:33.739Z,101264.66
2023-04-04T00:31:03.264Z,101263.63
2023-04-04T00:33:31.767Z,101265.06
2023-04-04T00:36:02.220Z,101258.81
2023-04-04T00:38:30.837Z,101263.88
2023-04-04T00:40:59.587Z,101249.88
2023-04-04T00:43:29.605Z,101261.38
2023-04-04T00:45:58.301Z,101251.34
2023-04-04T00:48:27.694Z,101257.50
2023-04-04T00:50:57.179Z,101254.00
2023-04-04T00:53:27.273Z,101256.56
2023-04-04T00:55:55.817Z,101252.53
2023-04-04T00:58:26.511Z,101245.34
2023-04-04T01:00:55.062Z,101249.38
2023-04-04T01:03:23.815Z,101241.88
2023-04-04T01:05:52.510Z,101238.31
2023-04-04T01:08:26.627Z,101238.22
2023-04-04T01:10:56.604Z,101244.22
2023-04-04T01:13:25.809Z,101233.22
2023-04-04T01:15:54.398Z,101235.03
2023-04-04T01:18:25.537Z,101238.34
2023-04-04T01:20:59.406Z,101227.22
2023-04-04T01:23:49.378Z,101235.81
2023-04-04T01:26:21.672Z,101226.22
2023-04-04T01:28:50.193Z,101225.25
2023-04-04T01:31:23.650Z,101226.16
2023-04-04T01:33:59.026Z,101224.59
2023-04-04T01:36:33.864Z,101219.66
2023-04-04T01:39:11.042Z,101213.00
2023-04-04T01:41:42.045Z,101217.22
2023-04-04T01:44:11.748Z,101212.88
2023-04-04T01:46:40.346Z,101218.09
2023-04-04T01:49:10.907Z,101215.53
2023-04-04T01:51:40.654Z,101202.72
2023-04-04T01:54:09.230Z,101204.91
2023-04-04T01:56:37.744Z,101209.00
2023-04-04T01:59:08.032Z,101203.59
2023-04-04T02:01:37.219Z,101204.28
2023-04-04T02:04:06.336Z,101199.59
2023-04-04T02:06:35.453Z,101192.41
2023-04-04T02:09:04.455Z,101180.41
2023-04-04T02:11:33.217Z,101195.66
2023-04-04T02:14:02.198Z,101197.16
2023-04-04T02:16:32.620Z,101185.03
2023-04-04T02:19:01.290Z,101195.47
2023-04-04T02:21:30.237Z,101190.16
2023-04-04T02:23:58.988Z,101205.84
2023-04-04T02:26:27.440Z,101196.13
2023-04-04T02:28:56.440Z,101206.56
2023-04-04T02:31:25.078Z,101202.25
2023-04-04T02:33:55.081Z,101208.25
2023-04-04T02:36:23.796Z,101193.50
2023-04-04T02:38:52.265Z,101196.81
2023-04-04T02:41:21.113Z,101203.03
2023-04-04T02:43:49.541Z,101199.56
2023-04-04T02:46:21.694Z,101211.63
2023-04-04T02:48:51.908Z,101202.31
2023-04-04T02:51:22.036Z,101206.09
2023-04-04T02:53:50.741Z,101208.63
2023-04-04T02:56:19.169Z,101207.94
2023-04-04T02:58:51.021Z,101214.91
2023-04-04T03:01:19.667Z,101202.72
2023-04-04T03:03:48.230Z,101197.09
2023-04-04T03:06:16.650Z,101196.91
2023-04-04T03:08:48.487Z,101198.75
2023-04-04T03:11:21.693Z,101196.53
2023-04-04T03:13:51.934Z,101208.50
2023-04-04T03:16:21.504Z,101201.38
2023-04-04T03:18:50.238Z,101205.78
2023-04-04T03:21:19.044Z,101198.94
2023-04-04T03:23:48.835Z,101209.50
2023-04-04T03:26:17.372Z,101211.44
2023-04-04T03:28:45.859Z,101212.03
2023-04-04T03:31:14.421Z,101210.78
2023-04-04T03:33:43.958Z,101204.78
2023-04-04T03:36:13.489Z,101207.13
2023-04-04T03:38:42.385Z,101213.00
2023-04-04T03:41:12.335Z,101210.38
2023-04-04T03:43:40.814Z,101208.97
2023-04-04T03:46:15.770Z,101214.25
2023-04-04T03:48:44.390Z,101215.88
2023-04-04T03:51:13.284Z,101208.31
2023-04-04T03:53:42.007Z,101207.66
2023-04-04T03:56:11.969Z,101208.53
2023-04-04T03:58:40.467Z,101203.34
2023-04-04T04:01:08.910Z,101216.41
2023-04-04T04:03:37.636Z,101208.78
2023-04-04T04:06:06.484Z,101210.34
2023-04-04T04:08:34.960Z,101210.22
2023-04-04T04:11:08.089Z,101204.13
2023-04-04T04:13:39.125Z,101199.91
2023-04-04T04:16:08.438Z,101204.00
2023-04-04T04:18:36.920Z,101196.25
2023-04-04T04:21:05.606Z,101213.75
2023-04-04T04:23:34.105Z,101207.53
2023-04-04T04:26:02.684Z,101200.34
2023-04-04T04:28:33.289Z,101203.22
2023-04-04T04:31:10.924Z,101196.97
2023-04-04T04:33:39.411Z,101208.56
2023-04-04T04:36:08.737Z,101205.69
2023-04-04T04:38:37.214Z,101199.97
2023-04-04T04:41:05.830Z,101209.88
2023-04-04T04:43:34.449Z,101204.88
2023-04-04T04:46:02.985Z,101212.34
2023-04-04T04:48:33.255Z,101203.69
2023-04-04T04:51:01.738Z,101202.78
2023-04-04T04:53:30.234Z,101203.09
2023-04-04T04:55:59.023Z,101207.28
2023-04-04T04:58:28.799Z,101203.75
2023-04-04T05:00:58.240Z,101209.63
2023-04-04T05:03:26.810Z,101209.31
2023-04-04T05:05:56.763Z,101209.09
2023-04-04T05:08:25.181Z,101207.66
2023-04-04T05:10:55.377Z,101208.66
2023-04-04T05:13:24.040Z,101213.47
2023-04-04T05:15:52.551Z,101221.97
2023-04-04T05:18:21.119Z,101218.63
2023-04-04T05:20:53.702Z,101215.75
2023-04-04T05:23:24.340Z,101222.53
2023-04-04T05:25:53.596Z,101220.78
2023-04-04T05:28:23.301Z,101224.03
2023-04-04T05:30:51.852Z,101212.75
2023-04-04T05:33:20.544Z,101216.84
2023-04-04T05:35:49.107Z,101218.47
2023-04-04T05:38:17.623Z,101218.72
2023-04-04T05:40:48.055Z,101220.38
2023-04-04T05:43:16.834Z,101223.13
2023-04-04T05:45:45.325Z,101220.81
2023-04-04T05:48:14.175Z,101223.13
2023-04-04T05:50:46.293Z,101214.44
2023-04-04T05:53:14.882Z,101222.38
2023-04-04T05:55:43.297Z,101217.03
2023-04-04T05:58:13.666Z,101222.34
2023-04-04T06:00:43.142Z,101223.97
2023-04-04T06:03:11.882Z,101214.72
2023-04-04T06:05:40.486Z,101218.91
2023-04-04T06:08:09.063Z,101222.88
2023-04-04T06:10:38.773Z,101210.50
2023-04-04T06:13:07.413Z,101224.75
2023-04-04T06:15:37.395Z,101218.28
2023-04-04T06:18:05.848Z,101223.69
2023-04-04T06:20:34.273Z,101211.97
2023-04-04T06:23:04.785Z,101223.03
2023-04-04T06:25:33.550Z,101220.06
2023-04-04T06:28:03.823Z,101219.47
2023-04-04T06:30:32.337Z,101225.38
2023-04-04T06:33:02.490Z,101218.38
2023-04-04T06:35:30.907Z,101211.22
2023-04-04T06:37:59.622Z,101214.94
2023-04-04T06:40:28.141Z,101213.03
2023-04-04T06:42:58.537Z,101205.59
2023-04-04T06:45:28.799Z,101210.50
2023-04-04T06:47:57.943Z,101210.50
2023-04-04T06:50:27.804Z,101215.16
2023-04-04T06:52:57.576Z,101209.59
2023-04-04T06:55:26.062Z,101209.81
2023-04-04T06:57:54.506Z,101208.94
2023-04-04T07:00:23.252Z,101209.78
2023-04-04T07:02:51.872Z,101203.72
2023-04-04T07:05:20.376Z,101221.50
2023-04-04T07:07:54.798Z,101215.84
2023-04-04T07:10:23.451Z,101211.50
2023-04-04T07:12:52.531Z,101212.06
2023-04-04T07:15:23.758Z,101216.91
2023-04-04T07:17:52.419Z,101218.09
2023-04-04T07:20:21.486Z,101216.72
2023-04-04T07:22:51.411Z,101208.66
2023-04-04T07:25:20.089Z,101212.78
2023-04-04T07:27:48.943Z,101209.94
2023-04-04T07:30:17.797Z,101213.47
2023-04-04T07:32:47.868Z,101206.13
2023-04-04T07:35:16.597Z,101211.50
2023-04-04T07:37:45.184Z,101214.53
2023-04-04T07:40:16.072Z,101214.44
2023-04-04T07:42:45.882Z,101213.03
2023-04-04T07:45:14.520Z,101211.34
2023-04-04T07:47:46.316Z,101210.91
2023-04-04T07:50:15.317Z,101218.13
2023-04-04T07:52:44.076Z,101211.78
2023-04-04T07:55:14.029Z,101209.06
2023-04-04T07:57:45.518Z,101211.19
2023-04-04T08:00:14.994Z,101206.81
2023-04-04T08:02:45.860Z,101199.88
2023-04-04T08:05:14.380Z,101210.47
2023-04-04T08:07:42.906Z,101213.56
2023-04-04T08:10:12.313Z,101212.31
2023-04-04T08:12:40.996Z,101203.25
2023-04-04T08:15:12.321Z,101205.81
2023-04-04T08:17:41.022Z,101202.97
2023-04-04T08:20:10.240Z,101208.19
2023-04-04T08:22:38.686Z,101202.81
2023-04-04T08:25:08.120Z,101205.38
2023-04-04T08:27:36.650Z,101211.75
2023-04-04T08:30:05.856Z,101208.06
2023-04-04T08:32:35.841Z,101208.00
2023-04-04T08:35:05.139Z,101210.84
2023-04-04T08:37:35.700Z,101209.31
2023-04-04T08:40:04.304Z,101211.72
2023-04-04T08:42:36.924Z,101202.38
2023-04-04T08:45:06.470Z,101204.84
2023-04-04T08:47:38.853Z,101202.34
2023-04-04T08:50:09.216Z,101201.75
2023-04-04T08:52:39.098Z,101198.84
2023-04-04T08:55:08.489Z,101204.81
2023-04-04T08:57:37.305Z,101196.28
2023-04-04T09:00:10.258Z,101195.59
2023-04-04T09:02:48.644Z,101197.38
2023-04-04T09:05:17.931Z,101191.97
2023-04-04T09:07:46.796Z,101187.06
2023-04-04T09:10:15.204Z,101188.28
2023-04-04T09:12:48.934Z,101177.13
2023-04-04T09:15:17.611Z,101177.75
2023-04-04T09:17:47.771Z,101183.75
2023-04-04T09:20:38.537Z,101183.16
2023-04-04T09:23:08.542Z,101180.69
2023-04-04T09:25:37.885Z,101184.56
2023-04-04T09:28:06.963Z,101184.19
2023-04-04T09:30:36.142Z,101183.78
2023-04-04T09:33:07.577Z,101190.41
2023-04-04T09:35:38.587Z,101186.84
2023-04-04T09:38:07.755Z,101187.41
2023-04-04T09:40:37.497Z,101189.78
2023-04-04T09:43:09.876Z,101180.25
2023-04-04T09:45:42.285Z,101189.31
2023-04-04T09:48:12.494Z,101188.25
2023-04-04T09:50:47.609Z,101184.25
2023-04-04T09:53:19.442Z,101194.09
2023-04-04T09:55:52.437Z,101187.63
2023-04-04T09:58:27.250Z,101191.47
2023-04-04T10:00:58.465Z,101187.56
2023-04-04T10:03:29.515Z,101196.94
2023-04-04T10:06:00.614Z,101191.00
2023-04-04T10:08:30.551Z,101179.31
2023-04-04T10:11:10.403Z,101184.56
2023-04-04T10:13:42.369Z,101184.69
2023-04-04T10:16:12.063Z,101178.22
2023-04-04T10:18:42.561Z,101178.34
2023-04-04T10:23:44.153Z,101168.72
2023-04-04T10:26:13.965Z,101146.84
2023-04-04T10:28:44.086Z,101150.97
2023-04-04T10:31:20.324Z,101164.13
2023-04-04T10:33:57.963Z,101155.28
2023-04-04T10:36:30.936Z,101155.28
2023-04-04T10:39:06.688Z,101157.66
2023-04-04T10:41:37.850Z,101154.47
2023-04-04T10:44:16.652Z,101154.38
2023-04-04T10:46:48.730Z,101163.34
2023-04-04T10:49:21.880Z,101156.75
2023-04-04T10:51:56.582Z,101163.50
2023-04-04T10:54:29.361Z,101156.91
2023-04-04T10:57:02.432Z,101151.25
2023-04-04T10:59:31.390Z,101145.94
2023-04-04T11:02:02.051Z,101143.22
2023-04-04T11:04:34.474Z,101141.41
2023-04-04T11:07:14.332Z,101145.03
2023-04-04T11:09:52.693Z,101138.91
2023-04-04T11:12:29.356Z,101139.66
2023-04-04T11:14:59.894Z,101127.59
2023-04-04T11:17:56.787Z,101127.84
2023-04-04T11:20:31.193Z,101129.69
2023-04-04T11:23:11.204Z,101130.88
2023-04-04T11:25:42.081Z,101131.63
2023-04-04T11:28:16.160Z,101129.41
2023-04-04T11:30:49.050Z,101119.84
2023-04-04T11:33:32.040Z,101123.88
2023-04-04T11:36:08.492Z,101127.50
2023-04-04T11:38:41.506Z,101116.00
2023-04-04T11:41:10.908Z,101119.53
2023-04-04T11:43:46.977Z,101123.38
2023-04-04T11:46:19.928Z,101119.53
2023-04-04T11:48:49.697Z,101118.63
2023-04-04T11:51:20.618Z,101133.16
2023-04-04T11:53:49.523Z,101130.53
2023-04-04T11:56:18.311Z,101122.25
2023-04-04T11:58:56.048Z,101137.78
2023-04-04T12:01:27.464Z,101129.00
2023-04-04T12:03:55.959Z,101129.50
2023-04-04T12:06:27.404Z,101117.94
2023-04-04T12:08:56.226Z,101117.63
2023-04-04T12:11:26.833Z,101106.97
2023-04-04T12:13:55.844Z,101123.34
2023-04-04T12:16:24.535Z,101105.97
2023-04-04T12:18:53.764Z,101120.91
2023-04-04T12:21:22.431Z,101112.28
2023-04-04T12:23:52.346Z,101113.38
2023-04-04T12:26:21.421Z,101100.63
2023-04-04T12:28:51.185Z,101111.78
2023-04-04T12:31:20.261Z,101110.75
2023-04-04T12:33:48.942Z,101104.88
2023-04-04T12:36:18.419Z,101094.25
2023-04-04T12:39:03.722Z,101096.25
2023-04-04T12:41:33.561Z,101096.78
2023-04-04T12:44:04.078Z,101102.09
2023-04-04T12:46:38.962Z,101098.19
2023-04-04T12:49:09.782Z,101081.31
2023-04-04T12:51:39.855Z,101104.03
2023-04-04T12:54:25.539Z,101105.88
2023-04-04T12:56:57.624Z,101110.28
2023-04-04T12:59:29.735Z,101101.38
2023-04-04T13:01:58.677Z,101099.88
2023-04-04T13:04:27.441Z,101098.34
2023-04-04T13:07:00.679Z,101095.41
2023-04-04T13:09:30.680Z,101090.66
2023-04-04T13:12:02.579Z,101090.59
2023-04-04T13:14:57.565Z,101086.88
2023-04-04T13:17:26.536Z,101096.19
2023-04-04T13:19:55.124Z,101096.38
2023-04-04T13:22:23.715Z,101089.19
2023-04-04T13:24:53.722Z,101092.41
2023-04-04T13:27:22.420Z,101079.81
2023-04-04T13:29:51.138Z,101086.13
2023-04-04T13:32:19.718Z,101081.91
2023-04-04T13:34:48.618Z,101081.09
2023-04-04T13:37:17.298Z,101080.94
2023-04-04T13:39:45.885Z,101084.84
2023-04-04T13:42:16.023Z,101082.91
2023-04-04T13:44:44.505Z,101093.81
2023-04-04T13:47:13.088Z,101087.69
2023-04-04T13:49:41.672Z,101083.59
2023-04-04T13:52:10.274Z,101085.81
2023-04-04T13:54:38.858Z,101074.75
2023-04-04T13:57:07.545Z,101069.75
2023-04-04T13:59:37.877Z,101074.47
2023-04-04T14:02:06.561Z,101071.91
2023-04-04T14:04:35.396Z,101081.44
2023-04-04T14:07:04.139Z,101077.16
2023-04-04T14:09:33.111Z,101083.13
2023-04-04T14:12:01.801Z,101079.94
2023-04-04T14:14:30.346Z,101055.53
2023-04-04T14:17:00.181Z,101073.78
2023-04-04T14:19:28.728Z,101067.78
2023-04-04T14:21:57.277Z,101081.28
2023-04-04T14:24:25.803Z,101068.84
2023-04-04T14:26:54.191Z,101071.91
2023-04-04T14:29:23.008Z,101060.59
2023-04-04T14:31:51.846Z,101069.84
2023-04-04T14:34:21.798Z,101065.28
2023-04-04T14:36:52.579Z,101067.13
2023-04-04T14:39:21.361Z,101072.81
2023-04-04T14:41:50.022Z,101068.84
2023-04-04T14:44:18.542Z,101080.50
2023-04-04T14:46:47.031Z,101069.69
2023-04-04T14:49:15.901Z,101075.56
2023-04-04T14:51:46.522Z,101077.44
2023-04-04T14:54:15.008Z,101071.38
2023-04-04T14:56:45.078Z,101071.72
2023-04-04T14:59:13.532Z,101068.66
2023-04-04T15:01:42.994Z,101072.59
2023-04-04T15:04:12.022Z,101074.81
2023-04-04T15:06:40.728Z,101070.44
2023-04-04T15:09:11.818Z,101069.50
2023-04-04T15:11:41.168Z,101060.47
2023-04-04T15:14:09.757Z,101051.88
2023-04-04T15:16:38.676Z,101053.72
2023-04-04T15:19:07.199Z,101052.50
2023-04-04T15:21:35.730Z,101039.13
2023-04-04T15:24:04.270Z,101050.00
2023-04-04T15:26:34.263Z,101044.19
2023-04-04T15:29:02.937Z,101047.31
2023-04-04T15:31:32.366Z,101041.53
2023-04-04T15:34:03.477Z,101029.84
2023-04-04T15:36:34.289Z,101038.94
2023-04-04T15:39:03.273Z,101044.00
2023-04-04T15:41:33.474Z,101037.50
2023-04-04T15:44:01.936Z,101039.94
2023-04-04T15:46:30.704Z,101041.03
2023-04-04T15:48:59.362Z,101033.78
2023-04-04T15:51:27.896Z,101037.81
2023-04-04T15:53:56.606Z,101041.38
2023-04-04T15:56:25.185Z,101040.56
2023-04-04T15:58:56.038Z,101036.00
2023-04-04T16:01:24.726Z,101042.16
2023-04-04T16:03:53.595Z,101033.25
2023-04-04T16:06:24.621Z,101043.97
2023-04-04T16:08:54.606Z,101018.84
2023-04-04T16:11:23.616Z,101037.78
2023-04-04T16:13:52.623Z,101036.78
2023-04-04T16:16:22.837Z,101035.59
2023-04-04T16:18:51.894Z,101034.66
2023-04-04T16:21:20.650Z,101029.84
2023-04-04T16:23:49.335Z,101019.94
2023-04-04T16:26:18.483Z,101018.66
2023-04-04T16:28:47.563Z,101013.84
2023-04-04T16:31:16.145Z,101018.72
2023-04-04T16:33:46.608Z,101016.97
2023-04-04T16:36:15.467Z,101007.47
2023-04-04T16:38:44.081Z,101019.94
2023-04-04T16:41:12.687Z,101017.09
2023-04-04T16:43:41.413Z,101021.59
2023-04-04T16:46:10.145Z,101004.16
2023-04-04T16:48:38.878Z,101010.25
2023-04-04T16:51:09.520Z,101012.78
2023-04-04T16:53:38.072Z,101007.91
2023-04-04T16:56:07.419Z,101004.84
2023-04-04T16:58:36.097Z,100998.38
2023-04-04T17:01:04.745Z,100985.00
2023-04-04T17:03:34.266Z,100986.00
2023-04-04T17:06:02.790Z,100994.44
2023-04-04T17:08:32.821Z,100990.13
2023-04-04T17:11:01.556Z,100989.94
2023-04-04T17:13:30.706Z,100987.31
2023-04-04T17:15:59.406Z,100988.06
2023-04-04T17:18:27.877Z,100987.88
2023-04-04T17:20:56.374Z,100984.22
2023-04-04T17:23:24.802Z,100979.00
2023-04-04T17:25:54.934Z,100981.13
2023-04-04T17:28:23.411Z,100987.97
2023-04-04T17:30:52.456Z,100981.97
2023-04-04T17:33:21.463Z,100981.88
2023-04-04T17:35:50.499Z,100986.94
2023-04-04T17:38:20.773Z,100979.06
2023-04-04T17:40:50.073Z,100983.38
2023-04-04T17:43:20.159Z,100985.25
2023-04-04T17:45:48.896Z,100984.59
2023-04-04T17:48:17.561Z,100989.19
2023-04-04T17:50:46.412Z,100986.56
2023-04-04T17:53:15.220Z,100985.97
2023-04-04T17:55:43.831Z,100989.34
2023-04-04T17:58:12.577Z,100991.81
2023-04-04T18:00:42.706Z,100988.41
2023-04-04T18:03:12.101Z,100993.09
2023-04-04T18:05:42.763Z,100993.28
2023-04-04T18:08:11.478Z,100993.47
2023-04-04T18:10:41.445Z,100986.72
2023-04-04T18:13:10.040Z,100981.94
2023-04-04T18:15:39.165Z,100984.06
2023-04-04T18:18:09.353Z,100985.47
2023-04-04T18:20:38.365Z,100988.16
2023-04-04T18:23:06.953Z,100984.13
2023-04-04T18:25:35.529Z,100985.06
2023-04-04T18:28:04.292Z,100985.31
2023-04-04T18:30:35.702Z,100987.19
2023-04-04T18:33:04.371Z,100991.75
2023-04-04T18:35:34.518Z,100991.09
2023-04-04T18:38:03.192Z,100986.84
2023-04-04T18:40:31.780Z,100998.38
2023-04-04T18:43:03.344Z,100997.16
2023-04-04T18:45:39.810Z,100983.97
2023-04-04T18:48:09.808Z,100998.25
2023-04-04T18:50:40.123Z,100994.31
2023-04-04T18:53:09.368Z,100993.81
2023-04-04T18:55:38.575Z,100978.63
2023-04-04T18:58:07.976Z,100991.13
2023-04-04T19:00:36.666Z,100996.56
2023-04-04T19:03:07.804Z,100988.19
2023-04-04T19:05:40.191Z,100993.50
2023-04-04T19:08:10.310Z,100987.59
2023-04-04T19:10:39.576Z,100987.88
2023-04-04T19:13:08.438Z,100999.44
2023-04-04T19:15:37.398Z,100994.38
2023-04-04T19:18:06.148Z,100981.84
2023-04-04T19:20:34.902Z,100986.25
2023-04-04T19:23:05.231Z,100985.06
2023-04-04T19:25:33.807Z,100983.22
2023-04-04T19:28:02.725Z,100976.75
2023-04-04T19:30:47.909Z,100981.94
2023-04-04T19:33:18.222Z,100995.22
2023-04-04T19:35:53.799Z,100990.31
2023-04-04T19:38:26.664Z,100978.28
2023-04-04T19:40:59.565Z,100981.94
2023-04-04T19:43:29.734Z,100982.16
2023-04-04T19:45:59.973Z,100986.63
2023-04-04T19:48:49.921Z,100986.03
2023-04-04T19:51:41.464Z,100988.81
2023-04-04T19:54:18.690Z,100982.97
2023-04-04T19:56:48.455Z,100980.63
2023-04-04T19:59:53.393Z,100978.25
2023-04-04T20:02:54.224Z,100972.41
2023-04-04T20:06:04.859Z,100978.72
2023-04-04T20:08:41.744Z,100977.31
2023-04-04T20:11:12.981Z,100972.06
2023-04-04T20:13:42.494Z,100971.31
2023-04-04T20:16:13.114Z,100964.38
2023-04-04T20:18:44.685Z,100964.28
2023-04-04T20:21:16.148Z,100963.53
2023-04-04T20:23:47.488Z,100960.25
2023-04-04T20:26:42.258Z,100956.78
2023-04-04T20:29:12.199Z,100961.25
2023-04-04T20:31:43.562Z,100958.13
2023-04-04T20:34:33.109Z,100960.94
2023-04-04T20:37:07.497Z,100958.59
2023-04-04T20:39:41.416Z,100962.13
2023-04-04T20:42:19.740Z,100954.34
2023-04-04T20:44:48.857Z,100950.31
2023-04-04T20:47:43.433Z,100962.44
2023-04-04T20:50:37.257Z,100953.91
2023-04-04T20:53:07.644Z,100953.19
2023-04-04T20:55:37.182Z,100949.91
2023-04-04T20:58:10.938Z,100943.78
2023-04-04T21:00:42.487Z,100947.38
2023-04-04T21:03:31.659Z,100948.38
2023-04-04T21:06:04.443Z,100944.31
2023-04-04T21:08:40.198Z,100943.63
2023-04-04T21:11:08.805Z,100944.63
2023-04-04T21:13:40.327Z,100937.94
2023-04-04T21:16:11.314Z,100936.16
2023-04-04T21:18:41.923Z,100937.84
2023-04-04T21:21:21.153Z,100940.56
2023-04-04T21:23:53.019Z,100929.25
2023-04-04T21:26:28.618Z,100917.44
2023-04-04T21:28:59.866Z,100926.72
2023-04-04T21:31:35.518Z,100929.34
2023-04-04T21:34:20.089Z,100926.72
2023-04-04T21:36:49.424Z,100917.50
2023-04-04T21:39:24.062Z,100925.56
2023-04-04T21:41:55.001Z,100918.81
2023-04-04T21:44:25.800Z,100917.28
2023-04-04T21:46:55.952Z,100926.03
2023-04-04T21:49:25.397Z,100914.75
2023-04-04T21:51:53.903Z,100923.50
2023-04-04T21:54:22.428Z,100919.28
2023-04-04T21:56:50.833Z,100919.38
2023-04-04T21:59:19.366Z,100920.28
2023-04-04T22:01:49.321Z,100917.75
2023-04-04T22:04:17.937Z,100913.38
2023-04-04T22:06:46.534Z,100916.13
2023-04-04T22:09:16.313Z,100915.38
2023-04-04T22:11:45.589Z,100900.00
2023-04-04T22:14:18.017Z,100900.00
2023-04-04T22:16:47.031Z,100899.31
2023-04-04T22:19:17.115Z,100908.78
2023-04-04T22:21:48.731Z,100886.50
2023-04-04T22:24:18.700Z,100898.47
2023-04-04T22:26:47.713Z,100896.03
2023-04-04T22:29:16.159Z,100896.25
2023-04-04T22:31:44.838Z,100894.63
2023-04-04T22:34:15.265Z,100895.56
2023-04-04T22:36:45.562Z,100896.53
2023-04-04T22:39:16.446Z,100894.94
2023-04-04T22:41:45.850Z,100899.47
2023-04-04T22:44:14.273Z,100904.78
2023-04-04T22:46:43.328Z,100895.47
2023-04-04T22:49:13.565Z,100892.78
2023-04-04T22:51:45.939Z,100891.38
2023-04-04T22:54:17.432Z,100891.66
2023-04-04T22:56:46.123Z,100889.22
2023-04-04T22:59:15.203Z,100886.75
2023-04-04T23:01:43.828Z,100892.25
2023-04-04T23:04:12.655Z,100882.28
2023-04-04T23:06:41.513Z,100888.25
2023-04-04T23:09:10.056Z,100882.13
2023-04-04T23:11:40.628Z,100876.91
2023-04-04T23:14:09.859Z,100877.06
2023-04-04T23:16:38.655Z,100876.22
2023-04-04T23:19:07.736Z,100878.84
2023-04-04T23:21:37.112Z,100854.19
2023-04-04T23:24:06.292Z,100878.13
2023-04-04T23:26:34.908Z,100865.22
2023-04-04T23:29:04.859Z,100861.16
2023-04-04T23:31:33.524Z,100863.97
2023-04-04T23:34:02.032Z,100857.78
2023-04-04T23:36:31.302Z,100856.88
2023-04-04T23:38:59.803Z,100855.09
2023-04-04T23:41:28.350Z,100860.31
2023-04-04T23:43:56.826Z,100855.09
2023-04-04T23:46:30.783Z,100848.19
2023-04-04T23:48:59.292Z,100855.81
2023-04-04T23:51:30.564Z,100856.63
2023-04-04T23:54:00.635Z,100852.28
2023-04-04T23:56:29.151Z,100859.19
2023-04-04T23:58:57.634Z,100852.97
